createdAt,value
2019-02-02T12:43:24.426Z,9.10
2019-02-02T12:45:55.572Z,9.10
2019-02-02T12:48:26.790Z,9.10
2019-02-02T12:50:57.921Z,9.10
2019-02-02T12:53:29.482Z,9.10
2019-02-02T12:56:00.722Z,9.00
2019-02-02T12:58:32.175Z,9.10
2019-02-02T13:01:03.661Z,9.00
2019-02-02T13:03:34.878Z,9.00
2019-02-02T13:06:06.033Z,8.90
2019-02-02T13:08:38.221Z,8.90
2019-02-02T13:11:09.582Z,8.80
2019-02-02T13:13:42.700Z,8.80
2019-02-02T13:16:13.629Z,8.80
2019-02-02T13:18:44.731Z,8.70
2019-02-02T13:21:15.941Z,8.70
2019-02-02T13:23:48.598Z,8.70
2019-02-02T13:26:19.732Z,8.60
2019-02-02T13:28:50.963Z,8.60
2019-02-02T13:31:22.145Z,8.60
2019-02-02T13:33:53.278Z,8.60
2019-02-02T13:38:34.453Z,8.60
2019-02-02T13:42:19.873Z,8.50
2019-02-02T13:44:51.123Z,8.50
2019-02-02T13:47:22.322Z,8.40
2019-02-02T13:49:54.811Z,8.30
2019-02-02T13:52:27.112Z,8.30
2019-02-02T13:54:58.318Z,8.30
2019-02-02T13:57:29.571Z,8.20
2019-02-02T14:00:00.712Z,8.10
2019-02-02T14:02:38.085Z,8.10
2019-02-02T14:05:12.169Z,8.00
2019-02-02T14:07:43.428Z,8.00
2019-02-02T14:10:19.953Z,7.90
2019-02-02T14:12:51.197Z,7.90
2019-02-02T14:15:22.367Z,7.80
2019-02-02T14:17:53.646Z,7.80
2019-02-02T14:20:24.859Z,7.70
2019-02-02T14:22:58.956Z,7.70
2019-02-02T14:25:30.207Z,7.70
2019-02-02T14:28:01.369Z,7.60
2019-02-02T14:30:34.070Z,7.60
2019-02-02T14:33:13.709Z,7.50
2019-02-02T14:35:38.190Z,7.50
2019-02-02T14:38:09.410Z,7.50
2019-02-02T14:40:44.677Z,7.40
2019-02-02T14:43:15.948Z,7.40
2019-02-02T14:45:48.103Z,7.40
2019-02-02T14:48:19.436Z,7.30
2019-02-02T14:50:50.647Z,7.30
2019-02-02T14:53:21.940Z,7.30
2019-02-02T14:55:53.129Z,7.20
2019-02-02T14:58:24.382Z,7.20
2019-02-02T15:00:55.630Z,7.20
2019-02-02T15:03:26.858Z,7.20
2019-02-02T15:05:58.079Z,7.10
2019-02-02T15:08:29.313Z,7.00
2019-02-02T15:11:00.459Z,7.00
2019-02-02T15:13:55.716Z,7.00
2019-02-02T15:16:22.843Z,6.90
2019-02-02T15:18:54.050Z,6.90
2019-02-02T15:24:50.779Z,6.90
2019-02-02T15:27:22.176Z,6.90
2019-02-02T15:29:54.639Z,6.90
2019-02-02T15:32:28.269Z,6.90
2019-02-02T15:35:02.191Z,6.80
2019-02-02T15:37:33.342Z,6.80
2019-02-02T15:40:17.593Z,6.80
2019-02-02T15:42:48.762Z,6.70
2019-02-02T15:45:28.757Z,6.70
2019-02-02T15:47:59.960Z,6.70
2019-02-02T15:50:31.345Z,6.60
2019-02-02T15:53:02.526Z,6.60
2019-02-02T15:55:33.787Z,6.60
2019-02-02T15:58:05.019Z,6.60
2019-02-02T16:00:37.796Z,6.60
2019-02-02T16:03:08.975Z,6.50
2019-02-02T16:05:40.161Z,6.50
2019-02-02T16:08:12.000Z,6.50
2019-02-02T16:10:43.171Z,6.50
2019-02-02T16:13:15.854Z,6.50
2019-02-02T16:15:47.079Z,6.50
2019-02-02T16:18:18.311Z,6.50
2019-02-02T16:20:49.571Z,6.50
2019-02-02T16:23:20.823Z,6.50
2019-02-02T16:25:51.990Z,6.50
2019-02-02T16:28:23.234Z,6.50
2019-02-02T16:30:54.510Z,6.50
2019-02-02T16:33:27.066Z,6.40
2019-02-02T16:35:58.391Z,6.40
2019-02-02T16:38:29.551Z,6.40
2019-02-02T16:41:00.816Z,6.30
2019-02-02T16:43:31.989Z,6.30
2019-02-02T16:46:03.265Z,6.30
2019-02-02T16:48:34.485Z,6.30
2019-02-02T16:51:05.750Z,6.30
2019-02-02T16:53:36.979Z,6.30
2019-02-02T16:56:10.223Z,6.30
2019-02-02T16:58:41.314Z,6.30
2019-02-02T17:01:12.569Z,6.30
2019-02-02T17:03:43.775Z,6.30
2019-02-02T17:06:16.434Z,6.30
2019-02-02T17:08:47.545Z,6.30
2019-02-02T17:11:18.807Z,6.30
2019-02-02T17:13:52.445Z,6.20
2019-02-02T17:16:23.042Z,6.30
2019-02-02T17:18:54.243Z,6.20
2019-02-02T17:21:25.525Z,6.20
2019-02-02T17:23:56.791Z,6.30
2019-02-02T17:26:28.049Z,6.30
2019-02-02T17:28:59.262Z,6.20
2019-02-02T17:31:30.517Z,6.20
2019-02-02T17:34:01.717Z,6.20
2019-02-02T17:36:34.468Z,6.20
2019-02-02T17:39:06.307Z,6.20
2019-02-02T17:41:37.552Z,6.20
2019-02-02T17:44:08.752Z,6.20
2019-02-02T17:46:45.800Z,6.20
2019-02-02T17:49:17.026Z,6.20
2019-02-02T17:51:48.271Z,6.20
2019-02-02T17:54:20.994Z,6.20
2019-02-02T17:56:52.208Z,6.20
2019-02-02T17:59:23.686Z,6.20
2019-02-02T18:01:56.684Z,6.20
2019-02-02T18:04:38.739Z,6.20
2019-02-02T18:07:00.757Z,6.30
2019-02-02T18:09:32.003Z,6.20
2019-02-02T18:12:03.274Z,6.20
2019-02-02T18:14:34.477Z,6.20
2019-02-02T18:17:05.741Z,6.20
2019-02-02T18:19:36.910Z,6.20
2019-02-02T18:22:08.171Z,6.20
2019-02-02T18:24:39.364Z,6.20
2019-02-02T18:27:10.667Z,6.20
2019-02-02T18:29:41.889Z,6.20
2019-02-02T18:32:13.535Z,6.20
2019-02-02T18:34:51.115Z,6.20
2019-02-02T18:37:17.711Z,6.20
2019-02-02T18:39:48.889Z,6.20
2019-02-02T18:42:21.229Z,6.20
2019-02-02T18:44:52.392Z,6.20
2019-02-02T18:47:23.667Z,6.20
2019-02-02T18:49:54.882Z,6.20
2019-02-02T18:52:26.168Z,6.10
2019-02-02T18:54:57.367Z,6.20
2019-02-02T18:57:28.609Z,6.20
2019-02-02T18:59:59.800Z,6.20
2019-02-02T19:02:31.086Z,6.20
2019-02-02T19:05:04.141Z,6.20
2019-02-02T19:07:36.981Z,6.10
2019-02-02T19:10:15.050Z,6.20
2019-02-02T19:12:46.311Z,6.10
2019-02-02T19:15:18.507Z,6.20
2019-02-02T19:17:49.749Z,6.10
2019-02-02T19:20:23.019Z,6.10
2019-02-02T19:22:57.040Z,6.20
2019-02-02T19:25:28.481Z,6.10
2019-02-02T19:28:00.999Z,6.20
2019-02-02T19:30:36.049Z,6.20
2019-02-02T19:33:07.332Z,6.20
2019-02-02T19:35:38.530Z,6.20
2019-02-02T19:38:09.786Z,6.20
2019-02-02T19:40:40.985Z,6.20
2019-02-02T19:43:12.254Z,6.20
2019-02-02T19:45:43.443Z,6.20
2019-02-02T19:48:14.707Z,6.20
2019-02-02T19:50:45.889Z,6.30
2019-02-02T19:53:17.158Z,6.20
2019-02-02T19:55:48.377Z,6.20
2019-02-02T19:58:19.715Z,6.20
2019-02-02T20:00:50.910Z,6.30
2019-02-02T20:03:22.162Z,6.30
2019-02-02T20:05:55.871Z,6.30
2019-02-02T20:08:28.696Z,6.30
2019-02-02T20:10:59.875Z,6.40
2019-02-02T20:13:31.144Z,6.40
2019-02-02T20:16:04.217Z,6.40
2019-02-02T20:18:37.948Z,6.40
2019-02-02T20:21:09.130Z,6.40
2019-02-02T20:23:42.361Z,6.50
2019-02-02T20:26:13.504Z,6.50
2019-02-02T20:28:46.711Z,6.60
2019-02-02T20:31:18.251Z,6.50
2019-02-02T20:33:49.891Z,6.60
2019-02-02T20:36:56.000Z,6.50
2019-02-02T20:39:41.982Z,6.50
2019-02-02T20:42:16.189Z,6.50
2019-02-02T20:44:59.097Z,6.60
2019-02-02T20:47:42.724Z,6.50
2019-02-02T20:50:17.513Z,6.50
2019-02-02T20:52:51.459Z,6.50
2019-02-02T20:55:31.109Z,6.50
2019-02-02T20:58:03.462Z,6.50
2019-02-02T21:00:36.132Z,6.60
2019-02-02T21:03:07.171Z,6.50
2019-02-02T21:05:51.542Z,6.50
2019-02-02T21:08:13.028Z,6.50
2019-02-02T21:10:46.413Z,6.40
2019-02-02T21:13:17.453Z,6.30
2019-02-02T21:15:48.620Z,6.20
2019-02-02T21:18:20.074Z,6.10
2019-02-02T21:20:51.636Z,6.00
2019-02-02T21:23:22.784Z,5.90
2019-02-02T21:25:53.788Z,5.80
2019-02-02T21:28:24.928Z,5.70
2019-02-02T21:30:56.063Z,5.60
2019-02-02T21:33:27.185Z,5.50
2019-02-02T21:36:04.080Z,5.50
2019-02-02T21:38:31.082Z,5.50
2019-02-02T21:41:04.323Z,5.40
2019-02-02T21:43:35.047Z,5.40
2019-02-02T21:46:06.178Z,5.30
2019-02-02T21:48:38.547Z,5.30
2019-02-02T21:51:09.672Z,5.30
2019-02-02T21:53:40.852Z,5.20
2019-02-02T21:56:12.081Z,5.20
2019-02-02T21:58:44.710Z,5.10
2019-02-02T22:01:23.860Z,5.10
2019-02-02T22:03:49.509Z,5.10
2019-02-02T22:06:22.113Z,5.00
2019-02-02T22:12:04.016Z,5.00
2019-02-02T22:14:36.639Z,5.00
2019-02-02T22:17:07.923Z,5.00
2019-02-02T22:19:39.241Z,5.00
2019-02-02T22:22:10.478Z,5.00
2019-02-02T22:24:41.690Z,4.90
2019-02-02T22:27:12.819Z,5.00
2019-02-02T22:29:44.066Z,4.90
2019-02-02T22:32:15.669Z,4.90
2019-02-02T22:34:46.869Z,4.90
2019-02-02T22:37:33.238Z,4.80
2019-02-02T22:40:08.969Z,4.80
2019-02-02T22:42:40.151Z,4.80
2019-02-02T22:45:14.687Z,4.80
2019-02-02T22:47:45.963Z,4.70
2019-02-02T22:50:18.819Z,4.80
2019-02-02T22:52:50.365Z,4.80
2019-02-02T22:55:22.831Z,4.70
2019-02-02T22:57:54.391Z,4.70
2019-02-02T23:00:48.554Z,4.60
2019-02-02T23:03:40.191Z,4.60
2019-02-02T23:06:39.255Z,4.60
2019-02-02T23:09:17.067Z,4.60
2019-02-02T23:11:55.762Z,4.60
2019-02-02T23:14:37.409Z,4.50
2019-02-02T23:17:09.611Z,4.50
2019-02-02T23:19:40.893Z,4.50
2019-02-02T23:22:12.165Z,4.50
2019-02-02T23:24:43.391Z,4.50
2019-02-02T23:30:45.672Z,4.40
2019-02-02T23:33:16.893Z,4.50
2019-02-02T23:36:32.262Z,4.40
2019-02-02T23:39:03.888Z,4.40
2019-02-02T23:41:35.450Z,4.30
2019-02-02T23:44:06.591Z,4.30
2019-02-02T23:46:37.793Z,4.30
2019-02-02T23:49:08.949Z,4.30
2019-02-02T23:51:41.123Z,4.30
2019-02-02T23:54:12.642Z,4.30
2019-02-02T23:56:43.843Z,4.30
2019-02-02T23:59:15.010Z,4.30
